sensor_id;sensor_type;location;lat;lon;timestamp;temperature;humidity
9925;DHT22;5001;51.674;7.868;2024-03-07T00:02:22;5.70;1.00
9925;DHT22;5001;51.674;7.868;2024-03-07T00:04:50;5.60;1.00
9925;DHT22;5001;51.674;7.868;2024-03-07T00:07:18;5.60;1.00
9925;DHT22;5001;51.674;7.868;2024-03-07T00:09:45;5.50;1.00
9925;DHT22;5001;51.674;7.868;2024-03-07T00:12:13;5.50;1.00
9925;DHT22;5001;51.674;7.868;2024-03-07T00:14:40;5.50;1.00
9925;DHT22;5001;51.674;7.868;2024-03-07T00:17:07;5.50;1.00
9925;DHT22;5001;51.674;7.868;2024-03-07T00:19:34;5.60;1.00
9925;DHT22;5001;51.674;7.868;2024-03-07T00:22:01;5.60;1.00
9925;DHT22;5001;51.674;7.868;2024-03-07T00:24:28;5.60;1.00
9925;DHT22;5001;51.674;7.868;2024-03-07T00:26:55;5.50;1.00
9925;DHT22;5001;51.674;7.868;2024-03-07T00:29:23;5.40;1.00
9925;DHT22;5001;51.674;7.868;2024-03-07T00:31:52;5.40;1.00
9925;DHT22;5001;51.674;7.868;2024-03-07T00:34:20;5.40;1.00
9925;DHT22;5001;51.674;7.868;2024-03-07T00:36:52;5.30;1.00
9925;DHT22;5001;51.674;7.868;2024-03-07T00:39:19;5.30;1.00
9925;DHT22;5001;51.674;7.868;2024-03-07T00:41:47;5.20;1.00
9925;DHT22;5001;51.674;7.868;2024-03-07T00:44:14;5.20;1.00
9925;DHT22;5001;51.674;7.868;2024-03-07T00:46:41;5.10;1.00
9925;DHT22;5001;51.674;7.868;2024-03-07T00:49:08;5.10;1.00
9925;DHT22;5001;51.674;7.868;2024-03-07T00:51:35;5.00;1.00
9925;DHT22;5001;51.674;7.868;2024-03-07T00:54:04;5.00;1.00
9925;DHT22;5001;51.674;7.868;2024-03-07T00:56:31;5.00;1.00
9925;DHT22;5001;51.674;7.868;2024-03-07T00:58:58;5.00;1.00
9925;DHT22;5001;51.674;7.868;2024-03-07T01:01:25;4.90;1.00
9925;DHT22;5001;51.674;7.868;2024-03-07T01:03:52;4.90;1.00
9925;DHT22;5001;51.674;7.868;2024-03-07T01:06:19;4.80;1.00
9925;DHT22;5001;51.674;7.868;2024-03-07T01:08:46;4.80;1.00
9925;DHT22;5001;51.674;7.868;2024-03-07T01:11:14;4.70;1.00
9925;DHT22;5001;51.674;7.868;2024-03-07T01:13:41;4.70;1.00
9925;DHT22;5001;51.674;7.868;2024-03-07T01:16:09;4.70;1.00
9925;DHT22;5001;51.674;7.868;2024-03-07T01:18:37;4.60;1.00
9925;DHT22;5001;51.674;7.868;2024-03-07T01:21:05;4.60;1.00
9925;DHT22;5001;51.674;7.868;2024-03-07T01:23:32;4.60;1.00
9925;DHT22;5001;51.674;7.868;2024-03-07T01:25:59;4.50;1.00
9925;DHT22;5001;51.674;7.868;2024-03-07T01:28:26;4.50;1.00
9925;DHT22;5001;51.674;7.868;2024-03-07T01:30:57;4.50;1.00
9925;DHT22;5001;51.674;7.868;2024-03-07T01:33:25;4.40;1.00
9925;DHT22;5001;51.674;7.868;2024-03-07T01:35:52;4.40;1.00
9925;DHT22;5001;51.674;7.868;2024-03-07T01:38:19;4.40;1.00
9925;DHT22;5001;51.674;7.868;2024-03-07T01:40:46;4.40;1.00
9925;DHT22;5001;51.674;7.868;2024-03-07T01:43:13;4.30;1.00
9925;DHT22;5001;51.674;7.868;2024-03-07T01:45:40;4.30;1.00
9925;DHT22;5001;51.674;7.868;2024-03-07T01:48:09;4.40;1.00
9925;DHT22;5001;51.674;7.868;2024-03-07T01:50:36;4.30;1.00
9925;DHT22;5001;51.674;7.868;2024-03-07T01:53:06;4.30;1.00
9925;DHT22;5001;51.674;7.868;2024-03-07T01:55:36;4.30;1.00
9925;DHT22;5001;51.674;7.868;2024-03-07T01:58:04;4.30;1.00
9925;DHT22;5001;51.674;7.868;2024-03-07T02:00:32;4.20;1.00
9925;DHT22;5001;51.674;7.868;2024-03-07T02:02:59;4.10;1.00
9925;DHT22;5001;51.674;7.868;2024-03-07T02:05:26;4.00;1.00
9925;DHT22;5001;51.674;7.868;2024-03-07T02:07:54;4.00;1.00
9925;DHT22;5001;51.674;7.868;2024-03-07T02:10:21;4.00;1.00
9925;DHT22;5001;51.674;7.868;2024-03-07T02:12:48;4.00;1.00
9925;DHT22;5001;51.674;7.868;2024-03-07T02:15:15;4.00;1.00
9925;DHT22;5001;51.674;7.868;2024-03-07T02:17:42;3.90;1.00
9925;DHT22;5001;51.674;7.868;2024-03-07T02:20:10;3.90;1.00
9925;DHT22;5001;51.674;7.868;2024-03-07T02:22:40;3.90;1.00
9925;DHT22;5001;51.674;7.868;2024-03-07T02:25:08;3.80;1.00
9925;DHT22;5001;51.674;7.868;2024-03-07T02:27:38;3.70;1.00
9925;DHT22;5001;51.674;7.868;2024-03-07T02:30:06;3.70;1.00
9925;DHT22;5001;51.674;7.868;2024-03-07T02:32:35;3.60;1.00
9925;DHT22;5001;51.674;7.868;2024-03-07T02:35:04;3.60;1.00
9925;DHT22;5001;51.674;7.868;2024-03-07T02:37:32;3.60;1.00
9925;DHT22;5001;51.674;7.868;2024-03-07T02:39:58;3.50;1.00
9925;DHT22;5001;51.674;7.868;2024-03-07T02:42:25;3.50;1.00
9925;DHT22;5001;51.674;7.868;2024-03-07T02:44:52;3.40;1.00
9925;DHT22;5001;51.674;7.868;2024-03-07T02:47:22;3.30;1.00
9925;DHT22;5001;51.674;7.868;2024-03-07T02:49:50;3.30;1.00
9925;DHT22;5001;51.674;7.868;2024-03-07T02:52:17;3.30;1.00
9925;DHT22;5001;51.674;7.868;2024-03-07T02:54:44;3.30;1.00
9925;DHT22;5001;51.674;7.868;2024-03-07T02:57:14;3.20;1.00
9925;DHT22;5001;51.674;7.868;2024-03-07T02:59:42;3.30;1.00
9925;DHT22;5001;51.674;7.868;2024-03-07T03:06:10;3.20;1.00
9925;DHT22;5001;51.674;7.868;2024-03-07T03:08:37;3.10;1.00
9925;DHT22;5001;51.674;7.868;2024-03-07T03:11:04;3.00;1.00
9925;DHT22;5001;51.674;7.868;2024-03-07T03:13:31;3.00;1.00
9925;DHT22;5001;51.674;7.868;2024-03-07T03:15:58;3.00;1.00
9925;DHT22;5001;51.674;7.868;2024-03-07T03:18:25;2.90;1.00
9925;DHT22;5001;51.674;7.868;2024-03-07T03:20:52;2.90;1.00
9925;DHT22;5001;51.674;7.868;2024-03-07T03:23:20;2.90;1.00
9925;DHT22;5001;51.674;7.868;2024-03-07T03:25:47;2.90;1.00
9925;DHT22;5001;51.674;7.868;2024-03-07T03:28:18;3.00;1.00
9925;DHT22;5001;51.674;7.868;2024-03-07T03:30:49;3.00;1.00
9925;DHT22;5001;51.674;7.868;2024-03-07T03:33:16;2.90;1.00
9925;DHT22;5001;51.674;7.868;2024-03-07T03:35:43;2.90;1.00
9925;DHT22;5001;51.674;7.868;2024-03-07T03:38:11;2.90;1.00
9925;DHT22;5001;51.674;7.868;2024-03-07T03:40:38;2.80;1.00
9925;DHT22;5001;51.674;7.868;2024-03-07T03:43:05;2.80;1.00
9925;DHT22;5001;51.674;7.868;2024-03-07T03:45:32;2.80;1.00
9925;DHT22;5001;51.674;7.868;2024-03-07T03:48:01;2.80;1.00
9925;DHT22;5001;51.674;7.868;2024-03-07T03:50:29;2.80;1.00
9925;DHT22;5001;51.674;7.868;2024-03-07T03:52:56;2.70;1.00
9925;DHT22;5001;51.674;7.868;2024-03-07T03:55:24;2.70;1.00
9925;DHT22;5001;51.674;7.868;2024-03-07T03:57:51;2.70;1.00
9925;DHT22;5001;51.674;7.868;2024-03-07T04:00:18;2.60;1.00
9925;DHT22;5001;51.674;7.868;2024-03-07T04:02:46;2.60;1.00
9925;DHT22;5001;51.674;7.868;2024-03-07T04:05:18;2.60;1.00
9925;DHT22;5001;51.674;7.868;2024-03-07T04:07:47;2.60;1.00
9925;DHT22;5001;51.674;7.868;2024-03-07T04:10:15;2.60;1.00
9925;DHT22;5001;51.674;7.868;2024-03-07T04:12:44;2.60;1.00
9925;DHT22;5001;51.674;7.868;2024-03-07T04:15:13;2.60;1.00
9925;DHT22;5001;51.674;7.868;2024-03-07T04:17:40;2.50;1.00
9925;DHT22;5001;51.674;7.868;2024-03-07T04:20:08;2.50;1.00
9925;DHT22;5001;51.674;7.868;2024-03-07T04:22:39;2.50;1.00
9925;DHT22;5001;51.674;7.868;2024-03-07T04:25:09;2.40;1.00
9925;DHT22;5001;51.674;7.868;2024-03-07T04:27:37;2.50;1.00
9925;DHT22;5001;51.674;7.868;2024-03-07T04:30:07;2.40;1.00
9925;DHT22;5001;51.674;7.868;2024-03-07T04:32:34;2.40;1.00
9925;DHT22;5001;51.674;7.868;2024-03-07T04:35:01;2.40;1.00
9925;DHT22;5001;51.674;7.868;2024-03-07T04:37:34;2.40;1.00
9925;DHT22;5001;51.674;7.868;2024-03-07T04:40:04;2.40;1.00
9925;DHT22;5001;51.674;7.868;2024-03-07T04:42:31;2.40;1.00
9925;DHT22;5001;51.674;7.868;2024-03-07T04:44:59;2.40;1.00
9925;DHT22;5001;51.674;7.868;2024-03-07T04:47:28;2.40;1.00
9925;DHT22;5001;51.674;7.868;2024-03-07T04:49:55;2.40;1.00
9925;DHT22;5001;51.674;7.868;2024-03-07T04:52:22;2.30;1.00
9925;DHT22;5001;51.674;7.868;2024-03-07T04:54:49;2.30;1.00
9925;DHT22;5001;51.674;7.868;2024-03-07T04:57:16;2.20;1.00
9925;DHT22;5001;51.674;7.868;2024-03-07T04:59:43;2.30;1.00
9925;DHT22;5001;51.674;7.868;2024-03-07T05:02:10;2.20;1.00
9925;DHT22;5001;51.674;7.868;2024-03-07T05:04:37;2.20;1.00
9925;DHT22;5001;51.674;7.868;2024-03-07T05:07:04;2.10;1.00
9925;DHT22;5001;51.674;7.868;2024-03-07T05:09:32;2.20;1.00
9925;DHT22;5001;51.674;7.868;2024-03-07T05:12:00;2.10;1.00
9925;DHT22;5001;51.674;7.868;2024-03-07T05:14:27;2.10;1.00
9925;DHT22;5001;51.674;7.868;2024-03-07T05:16:54;2.00;1.00
9925;DHT22;5001;51.674;7.868;2024-03-07T05:19:35;1.90;1.00
9925;DHT22;5001;51.674;7.868;2024-03-07T05:22:03;1.90;1.00
9925;DHT22;5001;51.674;7.868;2024-03-07T05:24:32;1.80;1.00
9925;DHT22;5001;51.674;7.868;2024-03-07T05:27:01;1.80;1.00
9925;DHT22;5001;51.674;7.868;2024-03-07T05:29:28;1.80;1.00
9925;DHT22;5001;51.674;7.868;2024-03-07T05:31:55;1.70;1.00
9925;DHT22;5001;51.674;7.868;2024-03-07T05:34:42;1.70;1.00
9925;DHT22;5001;51.674;7.868;2024-03-07T05:37:10;1.70;1.00
9925;DHT22;5001;51.674;7.868;2024-03-07T05:39:37;1.70;1.00
9925;DHT22;5001;51.674;7.868;2024-03-07T05:42:04;1.80;1.00
9925;DHT22;5001;51.674;7.868;2024-03-07T05:44:31;1.80;1.00
9925;DHT22;5001;51.674;7.868;2024-03-07T05:46:58;1.80;1.00
9925;DHT22;5001;51.674;7.868;2024-03-07T05:49:25;1.80;1.00
9925;DHT22;5001;51.674;7.868;2024-03-07T05:51:52;1.80;1.00
9925;DHT22;5001;51.674;7.868;2024-03-07T05:54:19;1.80;1.00
9925;DHT22;5001;51.674;7.868;2024-03-07T05:56:46;1.80;1.00
9925;DHT22;5001;51.674;7.868;2024-03-07T05:59:13;1.80;1.00
9925;DHT22;5001;51.674;7.868;2024-03-07T06:01:40;1.90;1.00
9925;DHT22;5001;51.674;7.868;2024-03-07T06:04:07;1.80;1.00
9925;DHT22;5001;51.674;7.868;2024-03-07T06:06:37;1.90;1.00
9925;DHT22;5001;51.674;7.868;2024-03-07T06:09:07;1.90;1.00
9925;DHT22;5001;51.674;7.868;2024-03-07T06:11:36;1.90;1.00
9925;DHT22;5001;51.674;7.868;2024-03-07T06:14:06;1.90;1.00
9925;DHT22;5001;51.674;7.868;2024-03-07T06:16:35;2.00;1.00
9925;DHT22;5001;51.674;7.868;2024-03-07T06:19:04;2.00;1.00
9925;DHT22;5001;51.674;7.868;2024-03-07T06:21:35;2.00;1.00
9925;DHT22;5001;51.674;7.868;2024-03-07T06:24:03;2.10;1.00
9925;DHT22;5001;51.674;7.868;2024-03-07T06:26:32;2.20;1.00
9925;DHT22;5001;51.674;7.868;2024-03-07T06:29:17;2.20;1.00
9925;DHT22;5001;51.674;7.868;2024-03-07T06:31:45;2.20;1.00
9925;DHT22;5001;51.674;7.868;2024-03-07T06:34:16;2.20;1.00
9925;DHT22;5001;51.674;7.868;2024-03-07T06:36:44;2.20;1.00
9925;DHT22;5001;51.674;7.868;2024-03-07T06:39:11;2.20;1.00
9925;DHT22;5001;51.674;7.868;2024-03-07T06:41:39;2.40;1.00
9925;DHT22;5001;51.674;7.868;2024-03-07T06:44:07;2.50;1.00
9925;DHT22;5001;51.674;7.868;2024-03-07T06:46:34;2.70;1.00
9925;DHT22;5001;51.674;7.868;2024-03-07T06:49:01;2.80;1.00
9925;DHT22;5001;51.674;7.868;2024-03-07T06:51:29;2.90;1.00
9925;DHT22;5001;51.674;7.868;2024-03-07T06:53:56;2.90;1.00
9925;DHT22;5001;51.674;7.868;2024-03-07T06:56:23;3.00;1.00
9925;DHT22;5001;51.674;7.868;2024-03-07T06:58:51;3.10;1.00
9925;DHT22;5001;51.674;7.868;2024-03-07T07:01:19;3.20;1.00
9925;DHT22;5001;51.674;7.868;2024-03-07T07:03:47;3.20;1.00
9925;DHT22;5001;51.674;7.868;2024-03-07T07:06:16;3.20;1.00
9925;DHT22;5001;51.674;7.868;2024-03-07T07:08:44;3.30;1.00
9925;DHT22;5001;51.674;7.868;2024-03-07T07:11:12;3.30;1.00
9925;DHT22;5001;51.674;7.868;2024-03-07T07:13:40;3.20;1.00
9925;DHT22;5001;51.674;7.868;2024-03-07T07:16:08;3.30;1.00
9925;DHT22;5001;51.674;7.868;2024-03-07T07:18:36;3.20;99.90
9925;DHT22;5001;51.674;7.868;2024-03-07T07:21:05;3.20;1.00
9925;DHT22;5001;51.674;7.868;2024-03-07T07:23:33;3.20;1.00
9925;DHT22;5001;51.674;7.868;2024-03-07T07:26:00;3.30;99.90
9925;DHT22;5001;51.674;7.868;2024-03-07T07:28:26;3.30;99.90
9925;DHT22;5001;51.674;7.868;2024-03-07T07:30:53;3.40;99.90
9925;DHT22;5001;51.674;7.868;2024-03-07T07:33:20;3.40;99.90
9925;DHT22;5001;51.674;7.868;2024-03-07T07:35:48;3.50;99.90
9925;DHT22;5001;51.674;7.868;2024-03-07T07:38:15;3.50;99.90
9925;DHT22;5001;51.674;7.868;2024-03-07T07:40:42;3.60;99.90
9925;DHT22;5001;51.674;7.868;2024-03-07T07:43:11;3.60;99.90
9925;DHT22;5001;51.674;7.868;2024-03-07T07:45:51;3.60;99.90
9925;DHT22;5001;51.674;7.868;2024-03-07T07:48:18;3.70;99.90
9925;DHT22;5001;51.674;7.868;2024-03-07T07:50:49;3.70;99.90
9925;DHT22;5001;51.674;7.868;2024-03-07T07:53:17;3.70;99.90
9925;DHT22;5001;51.674;7.868;2024-03-07T07:55:44;3.80;99.90
9925;DHT22;5001;51.674;7.868;2024-03-07T07:58:13;3.80;99.90
9925;DHT22;5001;51.674;7.868;2024-03-07T08:00:40;3.90;99.90
9925;DHT22;5001;51.674;7.868;2024-03-07T08:03:10;3.90;99.90
9925;DHT22;5001;51.674;7.868;2024-03-07T08:05:38;3.90;99.90
9925;DHT22;5001;51.674;7.868;2024-03-07T08:08:07;4.00;99.90
9925;DHT22;5001;51.674;7.868;2024-03-07T08:10:36;4.00;99.90
9925;DHT22;5001;51.674;7.868;2024-03-07T08:13:04;4.00;99.90
9925;DHT22;5001;51.674;7.868;2024-03-07T08:15:40;4.10;99.90
9925;DHT22;5001;51.674;7.868;2024-03-07T08:18:07;4.10;99.90
9925;DHT22;5001;51.674;7.868;2024-03-07T08:20:37;4.20;99.90
9925;DHT22;5001;51.674;7.868;2024-03-07T08:23:05;4.40;99.90
9925;DHT22;5001;51.674;7.868;2024-03-07T08:25:33;4.60;99.90
9925;DHT22;5001;51.674;7.868;2024-03-07T08:28:00;4.70;99.90
9925;DHT22;5001;51.674;7.868;2024-03-07T08:30:28;4.70;99.90
9925;DHT22;5001;51.674;7.868;2024-03-07T08:32:56;4.80;99.90
9925;DHT22;5001;51.674;7.868;2024-03-07T08:35:24;5.00;99.90
9925;DHT22;5001;51.674;7.868;2024-03-07T08:37:53;5.10;99.90
9925;DHT22;5001;51.674;7.868;2024-03-07T08:40:23;5.30;99.90
9925;DHT22;5001;51.674;7.868;2024-03-07T08:42:55;5.50;99.90
9925;DHT22;5001;51.674;7.868;2024-03-07T08:45:25;5.70;99.90
9925;DHT22;5001;51.674;7.868;2024-03-07T08:47:54;5.90;99.90
9925;DHT22;5001;51.674;7.868;2024-03-07T08:50:23;6.00;99.90
9925;DHT22;5001;51.674;7.868;2024-03-07T08:52:50;6.10;99.90
9925;DHT22;5001;51.674;7.868;2024-03-07T08:55:23;6.10;99.90
9925;DHT22;5001;51.674;7.868;2024-03-07T08:57:51;6.10;99.90
9925;DHT22;5001;51.674;7.868;2024-03-07T09:00:19;6.20;99.90
9925;DHT22;5001;51.674;7.868;2024-03-07T09:02:53;6.30;99.90
9925;DHT22;5001;51.674;7.868;2024-03-07T09:05:22;6.40;99.90
9925;DHT22;5001;51.674;7.868;2024-03-07T09:07:51;6.60;99.90
9925;DHT22;5001;51.674;7.868;2024-03-07T09:10:18;6.60;99.90
9925;DHT22;5001;51.674;7.868;2024-03-07T09:12:46;6.70;99.90
9925;DHT22;5001;51.674;7.868;2024-03-07T09:15:16;6.50;99.90
9925;DHT22;5001;51.674;7.868;2024-03-07T09:17:43;6.50;99.90
9925;DHT22;5001;51.674;7.868;2024-03-07T09:20:11;6.60;99.90
9925;DHT22;5001;51.674;7.868;2024-03-07T09:22:42;6.70;99.90
9925;DHT22;5001;51.674;7.868;2024-03-07T09:25:10;6.70;99.90
9925;DHT22;5001;51.674;7.868;2024-03-07T09:27:37;6.80;99.90
9925;DHT22;5001;51.674;7.868;2024-03-07T09:30:05;6.80;99.90
9925;DHT22;5001;51.674;7.868;2024-03-07T09:32:36;6.70;99.90
9925;DHT22;5001;51.674;7.868;2024-03-07T09:35:05;6.70;99.90
9925;DHT22;5001;51.674;7.868;2024-03-07T09:37:34;6.70;99.90
9925;DHT22;5001;51.674;7.868;2024-03-07T09:40:01;6.70;99.90
9925;DHT22;5001;51.674;7.868;2024-03-07T09:42:28;6.80;99.90
9925;DHT22;5001;51.674;7.868;2024-03-07T09:44:58;6.90;99.90
9925;DHT22;5001;51.674;7.868;2024-03-07T09:47:26;6.90;99.90
9925;DHT22;5001;51.674;7.868;2024-03-07T09:49:53;6.90;99.90
9925;DHT22;5001;51.674;7.868;2024-03-07T09:52:23;6.90;99.90
9925;DHT22;5001;51.674;7.868;2024-03-07T09:54:50;6.90;99.90
9925;DHT22;5001;51.674;7.868;2024-03-07T09:57:17;7.00;99.90
9925;DHT22;5001;51.674;7.868;2024-03-07T09:59:46;7.10;99.90
9925;DHT22;5001;51.674;7.868;2024-03-07T10:02:17;7.20;99.90
9925;DHT22;5001;51.674;7.868;2024-03-07T10:04:48;7.00;99.90
9925;DHT22;5001;51.674;7.868;2024-03-07T10:07:15;7.00;99.90
9925;DHT22;5001;51.674;7.868;2024-03-07T10:09:44;7.00;99.90
9925;DHT22;5001;51.674;7.868;2024-03-07T10:12:11;7.10;99.90
9925;DHT22;5001;51.674;7.868;2024-03-07T10:14:49;7.30;99.90
9925;DHT22;5001;51.674;7.868;2024-03-07T10:17:18;7.50;99.90
9925;DHT22;5001;51.674;7.868;2024-03-07T10:19:48;7.20;99.90
9925;DHT22;5001;51.674;7.868;2024-03-07T10:22:19;7.20;99.90
9925;DHT22;5001;51.674;7.868;2024-03-07T10:24:51;7.10;99.90
9925;DHT22;5001;51.674;7.868;2024-03-07T10:27:19;7.30;99.90
9925;DHT22;5001;51.674;7.868;2024-03-07T10:29:47;7.50;99.90
9925;DHT22;5001;51.674;7.868;2024-03-07T10:32:23;7.60;99.90
9925;DHT22;5001;51.674;7.868;2024-03-07T10:34:51;7.70;99.90
9925;DHT22;5001;51.674;7.868;2024-03-07T10:37:19;7.80;99.90
9925;DHT22;5001;51.674;7.868;2024-03-07T10:39:48;7.90;99.90
9925;DHT22;5001;51.674;7.868;2024-03-07T10:42:19;7.90;99.90
9925;DHT22;5001;51.674;7.868;2024-03-07T10:44:48;8.30;99.90
9925;DHT22;5001;51.674;7.868;2024-03-07T10:47:18;8.50;99.90
9925;DHT22;5001;51.674;7.868;2024-03-07T10:50:04;8.50;99.90
9925;DHT22;5001;51.674;7.868;2024-03-07T10:52:43;8.50;99.90
9925;DHT22;5001;51.674;7.868;2024-03-07T10:55:19;8.50;99.90
9925;DHT22;5001;51.674;7.868;2024-03-07T10:57:52;8.50;99.90
9925;DHT22;5001;51.674;7.868;2024-03-07T11:00:26;8.70;99.90
9925;DHT22;5001;51.674;7.868;2024-03-07T11:03:03;9.00;99.90
9925;DHT22;5001;51.674;7.868;2024-03-07T11:05:34;9.10;99.90
9925;DHT22;5001;51.674;7.868;2024-03-07T11:08:02;9.00;99.90
9925;DHT22;5001;51.674;7.868;2024-03-07T11:10:32;8.60;99.90
9925;DHT22;5001;51.674;7.868;2024-03-07T11:13:00;8.60;99.90
9925;DHT22;5001;51.674;7.868;2024-03-07T11:15:27;8.60;99.90
9925;DHT22;5001;51.674;7.868;2024-03-07T11:17:55;8.40;99.90
9925;DHT22;5001;51.674;7.868;2024-03-07T11:20:27;8.60;99.90
9925;DHT22;5001;51.674;7.868;2024-03-07T11:22:54;8.70;99.90
9925;DHT22;5001;51.674;7.868;2024-03-07T11:25:22;8.90;99.90
9925;DHT22;5001;51.674;7.868;2024-03-07T11:28:16;10.30;99.90
9925;DHT22;5001;51.674;7.868;2024-03-07T11:30:47;12.90;99.90
9925;DHT22;5001;51.674;7.868;2024-03-07T11:33:14;13.70;99.90
9925;DHT22;5001;51.674;7.868;2024-03-07T11:35:48;12.70;99.90
9925;DHT22;5001;51.674;7.868;2024-03-07T11:38:15;10.90;99.90
9925;DHT22;5001;51.674;7.868;2024-03-07T11:40:50;10.80;99.90
9925;DHT22;5001;51.674;7.868;2024-03-07T11:43:18;12.00;99.90
9925;DHT22;5001;51.674;7.868;2024-03-07T11:45:45;11.90;99.90
9925;DHT22;5001;51.674;7.868;2024-03-07T11:48:12;11.10;99.90
9925;DHT22;5001;51.674;7.868;2024-03-07T11:50:40;10.50;99.90
9925;DHT22;5001;51.674;7.868;2024-03-07T11:53:09;10.70;99.90
9925;DHT22;5001;51.674;7.868;2024-03-07T11:55:39;10.00;99.90
9925;DHT22;5001;51.674;7.868;2024-03-07T11:58:21;9.90;99.90
9925;DHT22;5001;51.674;7.868;2024-03-07T12:00:50;9.80;99.90
9925;DHT22;5001;51.674;7.868;2024-03-07T12:03:20;9.50;99.90
9925;DHT22;5001;51.674;7.868;2024-03-07T12:05:52;9.40;99.90
9925;DHT22;5001;51.674;7.868;2024-03-07T12:08:20;9.50;99.90
9925;DHT22;5001;51.674;7.868;2024-03-07T12:10:52;9.40;99.90
9925;DHT22;5001;51.674;7.868;2024-03-07T12:13:24;9.00;99.90
9925;DHT22;5001;51.674;7.868;2024-03-07T12:15:53;8.60;99.90
9925;DHT22;5001;51.674;7.868;2024-03-07T12:18:22;8.20;99.90
9925;DHT22;5001;51.674;7.868;2024-03-07T12:20:51;8.10;99.90
9925;DHT22;5001;51.674;7.868;2024-03-07T12:23:23;8.00;99.90
9925;DHT22;5001;51.674;7.868;2024-03-07T12:26:02;8.00;99.90
9925;DHT22;5001;51.674;7.868;2024-03-07T12:28:30;7.90;99.90
9925;DHT22;5001;51.674;7.868;2024-03-07T12:31:01;7.90;99.90
9925;DHT22;5001;51.674;7.868;2024-03-07T12:33:30;7.90;99.90
9925;DHT22;5001;51.674;7.868;2024-03-07T12:36:02;8.00;99.90
9925;DHT22;5001;51.674;7.868;2024-03-07T12:38:34;8.00;99.90
9925;DHT22;5001;51.674;7.868;2024-03-07T12:41:07;8.10;99.90
9925;DHT22;5001;51.674;7.868;2024-03-07T12:43:42;8.20;99.90
9925;DHT22;5001;51.674;7.868;2024-03-07T12:46:13;8.30;99.90
9925;DHT22;5001;51.674;7.868;2024-03-07T12:48:44;8.30;99.90
9925;DHT22;5001;51.674;7.868;2024-03-07T12:51:13;8.50;99.90
9925;DHT22;5001;51.674;7.868;2024-03-07T12:53:47;8.50;99.90
9925;DHT22;5001;51.674;7.868;2024-03-07T12:56:15;8.50;99.90
9925;DHT22;5001;51.674;7.868;2024-03-07T12:58:47;8.70;99.90
9925;DHT22;5001;51.674;7.868;2024-03-07T13:01:16;8.80;99.90
9925;DHT22;5001;51.674;7.868;2024-03-07T13:03:46;8.90;99.90
9925;DHT22;5001;51.674;7.868;2024-03-07T13:06:13;9.00;99.90
9925;DHT22;5001;51.674;7.868;2024-03-07T13:08:41;9.20;99.90
9925;DHT22;5001;51.674;7.868;2024-03-07T13:11:08;9.10;99.90
9925;DHT22;5001;51.674;7.868;2024-03-07T13:13:38;9.00;99.90
9925;DHT22;5001;51.674;7.868;2024-03-07T13:16:05;9.30;99.90
9925;DHT22;5001;51.674;7.868;2024-03-07T13:18:32;9.90;99.90
9925;DHT22;5001;51.674;7.868;2024-03-07T13:21:02;10.50;99.90
9925;DHT22;5001;51.674;7.868;2024-03-07T13:23:31;10.30;99.90
9925;DHT22;5001;51.674;7.868;2024-03-07T13:26:01;10.20;99.90
9925;DHT22;5001;51.674;7.868;2024-03-07T13:28:29;9.90;99.90
9925;DHT22;5001;51.674;7.868;2024-03-07T13:30:57;9.90;99.90
9925;DHT22;5001;51.674;7.868;2024-03-07T13:33:24;9.80;99.90
9925;DHT22;5001;51.674;7.868;2024-03-07T13:35:52;9.70;99.90
9925;DHT22;5001;51.674;7.868;2024-03-07T13:38:21;9.50;99.90
9925;DHT22;5001;51.674;7.868;2024-03-07T13:40:48;9.40;99.90
9925;DHT22;5001;51.674;7.868;2024-03-07T13:43:16;9.00;99.90
9925;DHT22;5001;51.674;7.868;2024-03-07T13:45:45;9.10;99.90
9925;DHT22;5001;51.674;7.868;2024-03-07T13:48:12;9.30;99.90
9925;DHT22;5001;51.674;7.868;2024-03-07T13:50:40;9.40;99.90
9925;DHT22;5001;51.674;7.868;2024-03-07T13:53:11;9.50;99.90
9925;DHT22;5001;51.674;7.868;2024-03-07T14:02:08;10.10;99.90
9925;DHT22;5001;51.674;7.868;2024-03-07T14:05:19;10.50;99.90
9925;DHT22;5001;51.674;7.868;2024-03-07T14:25:43;9.70;99.90
9925;DHT22;5001;51.674;7.868;2024-03-07T14:29:01;9.70;99.90
9925;DHT22;5001;51.674;7.868;2024-03-07T14:31:30;9.60;99.90
9925;DHT22;5001;51.674;7.868;2024-03-07T14:34:10;9.70;99.90
9925;DHT22;5001;51.674;7.868;2024-03-07T14:36:44;9.80;99.90
9925;DHT22;5001;51.674;7.868;2024-03-07T14:39:13;9.80;99.90
9925;DHT22;5001;51.674;7.868;2024-03-07T14:42:01;9.90;99.90
9925;DHT22;5001;51.674;7.868;2024-03-07T14:44:31;10.10;99.90
9925;DHT22;5001;51.674;7.868;2024-03-07T14:47:02;10.30;99.90
9925;DHT22;5001;51.674;7.868;2024-03-07T14:49:37;10.20;99.90
9925;DHT22;5001;51.674;7.868;2024-03-07T14:52:06;10.10;99.90
9925;DHT22;5001;51.674;7.868;2024-03-07T14:54:39;9.90;99.90
9925;DHT22;5001;51.674;7.868;2024-03-07T14:57:10;9.50;99.90
9925;DHT22;5001;51.674;7.868;2024-03-07T14:59:38;9.40;99.90
9925;DHT22;5001;51.674;7.868;2024-03-07T15:02:08;9.10;99.90
9925;DHT22;5001;51.674;7.868;2024-03-07T15:04:38;9.10;99.90
9925;DHT22;5001;51.674;7.868;2024-03-07T15:07:06;8.90;99.90
9925;DHT22;5001;51.674;7.868;2024-03-07T15:09:36;8.80;99.90
9925;DHT22;5001;51.674;7.868;2024-03-07T15:12:05;8.90;99.90
9925;DHT22;5001;51.674;7.868;2024-03-07T15:14:33;9.00;99.90
9925;DHT22;5001;51.674;7.868;2024-03-07T15:17:06;8.90;99.90
9925;DHT22;5001;51.674;7.868;2024-03-07T15:19:34;9.10;99.90
9925;DHT22;5001;51.674;7.868;2024-03-07T15:22:02;9.20;99.90
9925;DHT22;5001;51.674;7.868;2024-03-07T15:24:30;9.30;99.90
9925;DHT22;5001;51.674;7.868;2024-03-07T15:26:58;9.30;99.90
9925;DHT22;5001;51.674;7.868;2024-03-07T15:29:25;9.40;99.90
9925;DHT22;5001;51.674;7.868;2024-03-07T15:31:54;9.20;99.90
9925;DHT22;5001;51.674;7.868;2024-03-07T15:34:23;9.00;99.90
9925;DHT22;5001;51.674;7.868;2024-03-07T15:37:00;8.90;99.90
9925;DHT22;5001;51.674;7.868;2024-03-07T15:39:30;8.80;99.90
9925;DHT22;5001;51.674;7.868;2024-03-07T15:41:57;8.70;99.90
9925;DHT22;5001;51.674;7.868;2024-03-07T15:44:26;8.70;99.90
9925;DHT22;5001;51.674;7.868;2024-03-07T15:46:53;8.80;99.90
9925;DHT22;5001;51.674;7.868;2024-03-07T15:49:20;8.90;99.90
9925;DHT22;5001;51.674;7.868;2024-03-07T15:51:48;8.80;99.90
9925;DHT22;5001;51.674;7.868;2024-03-07T15:54:15;8.90;99.90
9925;DHT22;5001;51.674;7.868;2024-03-07T15:56:44;9.00;99.90
9925;DHT22;5001;51.674;7.868;2024-03-07T15:59:12;9.00;99.90
9925;DHT22;5001;51.674;7.868;2024-03-07T16:01:40;9.10;99.90
9925;DHT22;5001;51.674;7.868;2024-03-07T16:04:07;8.90;99.90
9925;DHT22;5001;51.674;7.868;2024-03-07T16:06:34;8.90;99.90
9925;DHT22;5001;51.674;7.868;2024-03-07T16:09:01;8.90;99.90
9925;DHT22;5001;51.674;7.868;2024-03-07T16:11:29;8.80;99.90
9925;DHT22;5001;51.674;7.868;2024-03-07T16:13:56;8.80;99.90
9925;DHT22;5001;51.674;7.868;2024-03-07T16:16:24;8.90;99.90
9925;DHT22;5001;51.674;7.868;2024-03-07T16:18:51;8.80;99.90
9925;DHT22;5001;51.674;7.868;2024-03-07T16:21:19;8.70;99.90
9925;DHT22;5001;51.674;7.868;2024-03-07T16:23:46;8.70;99.90
9925;DHT22;5001;51.674;7.868;2024-03-07T16:26:13;8.60;99.90
9925;DHT22;5001;51.674;7.868;2024-03-07T16:28:43;8.50;99.90
9925;DHT22;5001;51.674;7.868;2024-03-07T16:31:10;8.40;99.90
9925;DHT22;5001;51.674;7.868;2024-03-07T16:33:37;8.30;99.90
9925;DHT22;5001;51.674;7.868;2024-03-07T16:36:05;8.20;99.90
9925;DHT22;5001;51.674;7.868;2024-03-07T16:38:32;8.20;99.90
9925;DHT22;5001;51.674;7.868;2024-03-07T16:41:01;8.10;99.90
9925;DHT22;5001;51.674;7.868;2024-03-07T16:43:28;8.00;99.90
9925;DHT22;5001;51.674;7.868;2024-03-07T16:45:55;7.90;99.90
9925;DHT22;5001;51.674;7.868;2024-03-07T16:48:22;7.80;99.90
9925;DHT22;5001;51.674;7.868;2024-03-07T16:50:50;7.80;99.90
9925;DHT22;5001;51.674;7.868;2024-03-07T16:53:21;7.70;99.90
9925;DHT22;5001;51.674;7.868;2024-03-07T16:55:50;7.60;99.90
9925;DHT22;5001;51.674;7.868;2024-03-07T16:58:17;7.60;99.90
9925;DHT22;5001;51.674;7.868;2024-03-07T17:00:45;7.60;99.90
9925;DHT22;5001;51.674;7.868;2024-03-07T17:03:12;7.50;99.90
9925;DHT22;5001;51.674;7.868;2024-03-07T17:05:44;7.50;99.90